首页
METAR-TAF:

METAR-TAF

机场 :

博兹曼机场

博兹曼, 蒙大拿州, 美国

纬度: 45-47-17N, 经度: 111-09-39W, 海拔: 1364米

当前天气观测

该预报发布于25分钟前的04:56 UTC
风速3节,风向西南
温度 16°C
湿度 63%
气压 1018 hPa
能見度: 16.1公里
少量云层高于9000英尺

METAR: KBZN 170456Z 23003KT 10SM FEW090 16/09 A3006 RMK AO2 SLP151 T01560089

时间: 23:21 (05:21 UTC)

预报

该预报发布于2小时和11分钟前的03:10 UTC
预报有效从17日的 03点(UTC)到 18日的 06点(UTC)
风速7节,风向东转东北
能見度: 10公里
少量云层高于5000英尺
散云层高于10000英尺
附近有阵雨
短暂存在
从 17日的 04点(UTC)到 17日的 06点(UTC)
能見度: 9.7公里
多云层高于5000英尺
小雨
从 17日的 0600点(UTC)
风速3节,风向多变
能見度: 9.7公里
散云层高于6000英尺
多云层高于14000英尺
轻雾
从 17日的 1200点(UTC)
风速2节,风向多变
能見度: 10公里
少量云层高于6000英尺
散云层高于12000英尺
从 17日的 1800点(UTC)
风速2节,风向多变
能見度: 10公里
散云层高于5000英尺, 积雨云.
多云层高于10000英尺
附近有雷暴
几率 30%
从 17日的 18点(UTC)到 17日的 24点(UTC)
能見度: 6.4公里
多云层高于5000英尺, 积雨云.
多云层高于7000英尺
雷暴, 小雨
从 18日的 0000点(UTC)
风速4节,风向多变
能見度: 10公里
少量云层高于6000英尺
散云层高于10000英尺
几率 30%
从 18日的 00点(UTC)到 18日的 06点(UTC)
能見度: 8.0公里
多云层高于6000英尺
小雨

TAF: KBZN 170310Z 1703/1806 07007KT P6SM VCSH FEW050 SCT100 TEMPO 1704/1706 6SM -RA BKN050 FM170600 VRB03KT 6SM BR SCT060 BKN140 FM171200 VRB02KT P6SM FEW060 SCT120 FM171800 VRB02KT P6SM VCTS SCT050CB BKN100 PROB30 1718/1724 4SM -TSRA BKN050CB BKN070 FM180000 VRB04KT P6SM FEW060 SCT100 PROB30 1800/1806 5SM -RA BKN060

超过4000个机场的气象观测和天气预报(METAR&TAF报告)。

可查询的气象台以黄色和红色小点在地图上表示。

将鼠标移到小点上方,可查看气象台名称。

然后点击查看天气观测和预报。

如需切换地图:点击带黑十字的绿色按钮放大地图;点击带横线的绿色按钮缩小地图;或者点击绿色箭头查看邻近地区的地图。


METAR-TAF: